LFMN/NCE METAR and TAF weather

Enter ICAO airport designator
Station Type Date Time Source
LFMN METAR 2022/11/26 08:30 UTC NOAA

LFMN 260830Z 33014KT CAVOK 11/03 Q1022 NOSIG


Station Type Date Time Source
LFMN Decoded METAR 2022/11/26 08:30 UTC NOAA

Nice, France (LFMN) 43-39N 007-12E 10M
Nov 26, 2022 - 03:30 AM EST / 2022.11.26 0830 UTC
Wind: from the NNW (330 degrees) at 16 MPH (14 KT):0
Visibility: greater than 7 mile(s):0
Temperature: 51 F (11 C)
Dew Point: 37 F (3 C)
Relative Humidity: 57%
Pressure (altimeter): 30.18 in. Hg (1022 hPa)
ob: LFMN 260830Z 33014KT CAVOK 11/03 Q1022 NOSIG
cycle: 8

Station Type Date Time Source
LFMN TAF 2022/11/26 09:24 UTC NOAA

TAF LFMN 260800Z 2609/2715 33013KT CAVOK PROB30
TEMPO 2612/2615 24007KT
BECMG 2711/2712 21007KT

Example: see airport list